Iver Agile — IBHW — position and weather

sailwx.info

Track history (hours):
 
Tides and Currents Weather Stations Pressure Air Temp Water Temp Dewpoint Dewpoint Depression Visibility Wind Speed Wind Dir Waves Ship Positions

Iver Agile

Last reported at 2016-May-29 05:26 UTC. Time now 2016-May-29 21:07 UTC.
Position N 35°60' W 005°16'.

Length 110 m; draft 6.2 m.

Type: Tanker. MMSI: 247103700.

Date/timePositionNaut miles runAvg speedWind from/ knotsBaromVisibWave heightAir tempDewpointWater temp
2016-May-29 05:26N 35°60' W 005°16'1314.8
2016-May-29 04:32N 35°56' W 005°32'3 0.1
2016-May-27 12:33N 35°58' W 005°34'10 9.8
2016-May-27 11:33N 36°03' W 005°24'7 6.8
2016-May-27 10:33N 36°10' W 005°24'0 0.1
2016-May-27 09:33N 36°10' W 005°24'0 0.0
2016-May-27 08:33N 36°10' W 005°24'0 0.0
2016-May-26 00:32N 36°11' W 005°24'5 5.1
2016-May-25 23:34N 36°06' W 005°23'3 2.6
2016-May-25 22:33N 36°04' W 005°21'1 1.2
2016-May-25 21:33N 36°04' W 005°20'0 0.2
2016-May-25 20:33N 36°04' W 005°20'3 2.5
2016-May-25 19:34N 36°02' W 005°23'1411.9
2016-May-25 18:24N 35°55' W 005°37'71 2.1
2016-May-24 08:07N 36°42' W 006°44'7210.7
2016-May-24 01:27N 35°58' W 005°33'1112.1
2016-May-24 00:33N 36°02' W 005°21'  
2016-May-21 04:23N 35°58' W 005°14'1113.7
2016-May-21 03:33N 35°57' W 005°28'101 4.7
2016-May-20 06:20N 37°10' W 006°54'0 0.0
2016-May-20 04:29N 37°10' W 006°54'0 0.0
2016-May-20 03:32N 37°10' W 006°54'0 0.0
2016-May-20 02:32N 37°10' W 006°54'0 0.0
2016-May-20 01:32N 37°10' W 006°54'  
Track history (hours):
 
Tides and Currents Weather Stations Pressure Air Temp Water Temp Dewpoint Dewpoint Depression Visibility Wind Speed Wind Dir Waves Ship Positions

Iver Agile

Last reported at 2016-May-29 05:26 UTC. Time now 2016-May-29 21:07 UTC.
Position N 35°60' W 005°16'.

Length 110 m; draft 6.2 m.

Type: Tanker. MMSI: 247103700.

Date/timePositionNaut miles runAvg speedWind from/ knotsBaromVisibWave heightAir tempDewpointWater temp
2016-May-29 05:26N 35°60' W 005°16'1314.8
2016-May-29 04:32N 35°56' W 005°32'3 0.1
2016-May-27 12:33N 35°58' W 005°34'10 9.8
2016-May-27 11:33N 36°03' W 005°24'7 6.8
2016-May-27 10:33N 36°10' W 005°24'0 0.1
2016-May-27 09:33N 36°10' W 005°24'0 0.0
2016-May-27 08:33N 36°10' W 005°24'0 0.0
2016-May-26 00:32N 36°11' W 005°24'5 5.1
2016-May-25 23:34N 36°06' W 005°23'3 2.6
2016-May-25 22:33N 36°04' W 005°21'1 1.2
2016-May-25 21:33N 36°04' W 005°20'0 0.2
2016-May-25 20:33N 36°04' W 005°20'3 2.5
2016-May-25 19:34N 36°02' W 005°23'1411.9
2016-May-25 18:24N 35°55' W 005°37'71 2.1
2016-May-24 08:07N 36°42' W 006°44'7210.7
2016-May-24 01:27N 35°58' W 005°33'1112.1
2016-May-24 00:33N 36°02' W 005°21'  
2016-May-21 04:23N 35°58' W 005°14'1113.7
2016-May-21 03:33N 35°57' W 005°28'101 4.7
2016-May-20 06:20N 37°10' W 006°54'0 0.0
2016-May-20 04:29N 37°10' W 006°54'0 0.0
2016-May-20 03:32N 37°10' W 006°54'0 0.0
2016-May-20 02:32N 37°10' W 006°54'0 0.0
2016-May-20 01:32N 37°10' W 006°54'  

Dump ship's entire track history